Citra, Florida
Current Conditions -  °F | °C
As of 8:50 AM on Monday 26 Jan 2015 (Local Time) from KOCF Reporting Station
Clear Clear  
Wind Chill: 55°   Ceiling: Unl
Heat Index: 55°   Visibility: 10mi
Dew Point: 46°   Wind: 12mph
Humidity: 72%   Direction: 300°WNW
Pressure: 29.9"   Gusts: 17mph
Location:  29.41°N, 82.11°W
Report Text: KOCF 261350Z 30010G15KT 10SM CLR 13/08 A2990
Loading
Personal Weather Stations






























Interactive Weather Map New forecast layout! Learn more

10-Day Weather Forecast

Advertisements
Track Severe Weather on mobile